createdAt,value
2017-09-29T00:01:54.971Z,86.30
2017-09-29T00:04:22.500Z,86.30
2017-09-29T00:06:49.960Z,86.30
2017-09-29T00:09:17.461Z,86.50
2017-09-29T00:11:45.751Z,87.60
2017-09-29T00:14:13.992Z,87.90
2017-09-29T00:16:41.481Z,87.90
2017-09-29T00:19:09.801Z,87.90
2017-09-29T00:21:37.239Z,87.90
2017-09-29T00:24:04.735Z,87.40
2017-09-29T00:26:32.232Z,87.10
2017-09-29T00:29:00.506Z,87.40
2017-09-29T00:31:28.748Z,87.70
2017-09-29T00:33:56.241Z,87.60
2017-09-29T00:36:24.507Z,86.50
2017-09-29T00:38:51.987Z,86.50
2017-09-29T00:41:20.274Z,86.10
2017-09-29T00:43:47.756Z,86.10
2017-09-29T00:46:15.229Z,86.00
2017-09-29T00:48:42.747Z,86.10
2017-09-29T00:51:10.272Z,86.40
2017-09-29T00:53:37.884Z,86.60
2017-09-29T00:56:05.351Z,86.70
2017-09-29T00:58:32.855Z,86.70
2017-09-29T01:01:00.339Z,86.50
2017-09-29T01:03:28.573Z,86.00
2017-09-29T01:05:56.073Z,86.00
2017-09-29T01:08:24.312Z,85.30
2017-09-29T01:10:51.828Z,85.30
2017-09-29T01:13:19.294Z,85.10
2017-09-29T01:15:46.811Z,84.90
2017-09-29T01:18:15.068Z,84.80
2017-09-29T01:20:42.578Z,84.80
2017-09-29T01:23:10.064Z,85.00
2017-09-29T01:25:37.567Z,85.10
2017-09-29T01:28:05.878Z,85.40
2017-09-29T01:30:33.368Z,85.30
2017-09-29T01:33:00.882Z,85.00
2017-09-29T01:35:28.374Z,85.00
2017-09-29T01:37:55.886Z,85.20
2017-09-29T01:40:24.167Z,85.20
2017-09-29T01:42:52.413Z,84.80
2017-09-29T01:45:19.920Z,84.80
2017-09-29T01:47:47.387Z,85.40
2017-09-29T01:50:14.891Z,85.40
2017-09-29T01:52:42.379Z,84.90
2017-09-29T01:55:09.854Z,84.50
2017-09-29T01:57:37.343Z,84.20
2017-09-29T02:00:04.847Z,84.30
2017-09-29T02:02:33.119Z,84.60
2017-09-29T02:05:01.368Z,84.50
2017-09-29T02:07:28.867Z,84.40
2017-09-29T02:09:57.100Z,84.80
2017-09-29T02:12:24.620Z,84.80
2017-09-29T02:14:52.096Z,84.80
2017-09-29T02:17:19.578Z,85.00
2017-09-29T02:19:47.093Z,85.10
2017-09-29T02:22:14.571Z,85.60
2017-09-29T02:24:42.043Z,86.30
2017-09-29T02:27:09.552Z,86.00
2017-09-29T02:29:37.059Z,85.30
2017-09-29T02:32:04.540Z,85.20
2017-09-29T02:34:32.065Z,85.40
2017-09-29T02:36:59.531Z,86.40
2017-09-29T02:39:27.015Z,87.00
2017-09-29T02:41:54.523Z,87.50
2017-09-29T02:44:21.991Z,87.80
2017-09-29T02:46:49.523Z,88.00
2017-09-29T02:49:17.019Z,87.90
2017-09-29T02:51:44.515Z,88.00
2017-09-29T02:54:11.997Z,88.20
2017-09-29T02:56:41.031Z,88.60
2017-09-29T02:59:09.516Z,88.70
2017-09-29T03:01:40.221Z,88.40
2017-09-29T03:04:09.428Z,88.00
2017-09-29T03:06:36.904Z,87.60
2017-09-29T03:09:04.407Z,87.30
2017-09-29T03:11:32.675Z,87.00
2017-09-29T03:14:00.172Z,87.00
2017-09-29T03:16:27.652Z,87.20
2017-09-29T03:18:55.149Z,87.50
2017-09-29T03:21:22.647Z,87.90
2017-09-29T03:23:50.119Z,88.10
2017-09-29T03:26:17.627Z,88.40
2017-09-29T03:28:45.119Z,88.50
2017-09-29T03:31:12.588Z,88.40
2017-09-29T03:33:40.078Z,88.20
2017-09-29T03:36:07.575Z,87.90
2017-09-29T03:38:35.898Z,87.70
2017-09-29T03:41:03.400Z,87.70
2017-09-29T03:43:30.875Z,87.50
2017-09-29T03:45:59.132Z,87.40
2017-09-29T03:48:26.627Z,87.40
2017-09-29T03:50:56.240Z,87.50
2017-09-29T03:53:25.406Z,87.30
2017-09-29T03:55:53.740Z,87.50
2017-09-29T03:58:25.092Z,87.90
2017-09-29T04:00:52.764Z,88.20
2017-09-29T04:03:20.238Z,88.30
2017-09-29T04:05:48.480Z,88.60
2017-09-29T04:08:16.007Z,88.50
2017-09-29T04:10:44.239Z,88.30
2017-09-29T04:13:11.753Z,88.30
2017-09-29T04:15:39.238Z,88.20
2017-09-29T04:18:06.760Z,87.90
2017-09-29T04:20:34.986Z,88.20
2017-09-29T04:23:02.535Z,88.20
2017-09-29T04:25:30.008Z,88.40
2017-09-29T04:27:57.470Z,88.30
2017-09-29T04:30:25.013Z,88.50
2017-09-29T04:32:52.622Z,88.80
2017-09-29T04:35:20.894Z,89.30
2017-09-29T04:37:49.148Z,89.60
2017-09-29T04:40:16.654Z,89.50
2017-09-29T04:42:44.160Z,89.70
2017-09-29T04:45:11.667Z,89.70
2017-09-29T04:47:39.134Z,89.80
2017-09-29T04:50:06.654Z,89.70
2017-09-29T04:52:34.227Z,89.70
2017-09-29T04:55:02.479Z,89.80
2017-09-29T04:57:29.949Z,89.80
2017-09-29T04:59:57.458Z,89.70
2017-09-29T05:02:24.988Z,89.60
2017-09-29T05:04:53.242Z,89.40
2017-09-29T05:07:20.780Z,89.40
2017-09-29T05:09:48.254Z,89.50
2017-09-29T05:12:15.734Z,89.50
2017-09-29T05:14:44.013Z,89.30
2017-09-29T05:17:12.247Z,89.10
2017-09-29T05:19:39.762Z,89.10
2017-09-29T05:22:08.051Z,88.90
2017-09-29T05:24:35.571Z,88.90
2017-09-29T05:27:03.101Z,88.70
2017-09-29T05:29:30.589Z,88.60
2017-09-29T05:31:58.098Z,89.20
2017-09-29T05:34:25.579Z,89.60
2017-09-29T05:36:53.084Z,89.50
2017-09-29T05:39:21.326Z,90.00
2017-09-29T05:41:48.824Z,90.00
2017-09-29T05:44:17.082Z,90.10
2017-09-29T05:46:45.364Z,89.00
2017-09-29T05:49:13.617Z,87.80
2017-09-29T05:51:41.141Z,87.80
2017-09-29T05:54:08.619Z,87.50
2017-09-29T05:56:36.116Z,86.80
2017-09-29T05:59:04.399Z,86.20
2017-09-29T06:01:32.640Z,85.50
2017-09-29T06:04:00.144Z,85.50
2017-09-29T06:06:28.399Z,86.10
2017-09-29T06:08:55.908Z,86.10
2017-09-29T06:11:23.380Z,87.70
2017-09-29T06:13:50.863Z,87.60
2017-09-29T06:16:18.371Z,88.00
2017-09-29T06:18:45.860Z,87.20
2017-09-29T06:21:13.379Z,86.60
2017-09-29T06:23:41.649Z,86.80
2017-09-29T06:26:09.902Z,86.30
2017-09-29T06:28:37.395Z,86.20
2017-09-29T06:31:05.671Z,85.50
2017-09-29T06:33:33.151Z,85.50
2017-09-29T06:36:00.629Z,85.60
2017-09-29T06:38:28.123Z,85.30
2017-09-29T06:40:55.635Z,85.40
2017-09-29T06:43:23.135Z,85.50
2017-09-29T06:45:51.412Z,86.40
2017-09-29T06:48:19.722Z,87.20
2017-09-29T06:50:47.195Z,87.10
2017-09-29T06:53:14.677Z,86.20
2017-09-29T06:55:42.163Z,86.60
2017-09-29T06:58:10.443Z,87.30
2017-09-29T07:00:39.709Z,86.20
2017-09-29T07:03:07.211Z,86.20
2017-09-29T07:05:35.501Z,86.30
2017-09-29T07:08:03.754Z,87.70
2017-09-29T07:10:31.305Z,87.70
2017-09-29T07:12:58.802Z,88.40
2017-09-29T07:15:26.312Z,87.50
2017-09-29T07:17:53.800Z,86.90
2017-09-29T07:20:21.271Z,87.00
2017-09-29T07:22:49.563Z,87.00
2017-09-29T07:25:19.947Z,87.00
2017-09-29T07:27:52.235Z,87.10
2017-09-29T07:30:20.581Z,87.10
2017-09-29T07:32:48.060Z,86.90
2017-09-29T07:35:15.570Z,88.60
2017-09-29T07:37:43.050Z,89.50
2017-09-29T07:40:10.564Z,89.70
2017-09-29T07:42:38.852Z,90.10
2017-09-29T07:45:06.364Z,90.10
2017-09-29T07:47:33.868Z,90.30
2017-09-29T07:50:01.375Z,90.30
2017-09-29T07:52:28.901Z,90.30
2017-09-29T07:54:56.429Z,90.10
2017-09-29T07:57:24.708Z,89.80
2017-09-29T07:59:52.999Z,89.70
2017-09-29T08:02:20.507Z,89.70
2017-09-29T08:04:48.798Z,90.00
2017-09-29T08:07:16.298Z,90.00
2017-09-29T08:09:43.809Z,89.90
2017-09-29T08:12:11.275Z,89.80
2017-09-29T08:14:38.754Z,89.60
2017-09-29T08:17:07.004Z,90.00
2017-09-29T08:19:34.503Z,90.00
2017-09-29T08:22:02.755Z,90.30
2017-09-29T08:24:31.008Z,90.50
2017-09-29T08:26:58.514Z,90.50
2017-09-29T08:29:26.003Z,90.70
2017-09-29T08:31:54.076Z,90.70
2017-09-29T08:34:21.530Z,90.70
2017-09-29T08:36:49.000Z,90.70
2017-09-29T08:39:16.516Z,90.80
2017-09-29T08:41:44.780Z,90.90
2017-09-29T08:44:13.078Z,91.00
2017-09-29T08:46:40.547Z,91.00
2017-09-29T08:49:08.026Z,90.90
2017-09-29T08:51:35.527Z,91.00
2017-09-29T08:54:03.773Z,90.80
2017-09-29T08:56:31.318Z,90.80
2017-09-29T08:58:58.785Z,90.70
2017-09-29T09:01:26.308Z,90.70
2017-09-29T09:03:53.815Z,90.70
2017-09-29T09:06:21.290Z,90.80
2017-09-29T09:08:48.788Z,90.80
2017-09-29T09:11:16.298Z,90.80
2017-09-29T09:13:43.795Z,90.90
2017-09-29T09:16:11.268Z,91.10
2017-09-29T09:18:38.787Z,91.00
2017-09-29T09:21:06.318Z,91.00
2017-09-29T09:23:33.807Z,91.10
2017-09-29T09:26:01.312Z,91.20
2017-09-29T09:28:28.788Z,91.30
2017-09-29T09:30:56.279Z,90.90
2017-09-29T09:33:25.264Z,90.50
2017-09-29T09:35:52.779Z,90.50
2017-09-29T09:38:20.245Z,90.90
2017-09-29T09:40:47.752Z,91.00
2017-09-29T09:43:15.228Z,91.00
2017-09-29T09:45:43.466Z,91.20
2017-09-29T09:48:10.970Z,91.20
2017-09-29T09:50:39.211Z,91.20
2017-09-29T09:53:06.684Z,91.30
2017-09-29T09:55:34.940Z,91.10
2017-09-29T09:58:02.523Z,91.10
2017-09-29T10:00:30.775Z,90.80
2017-09-29T10:02:58.279Z,90.80
2017-09-29T10:05:25.766Z,91.20
2017-09-29T10:07:53.230Z,91.10
2017-09-29T10:10:20.746Z,91.10
2017-09-29T10:12:49.044Z,91.10
2017-09-29T10:15:16.523Z,91.10
2017-09-29T10:17:44.041Z,91.10
2017-09-29T10:20:12.265Z,91.20
2017-09-29T10:22:39.779Z,91.10
2017-09-29T10:25:08.016Z,91.00
2017-09-29T10:27:35.521Z,91.00
2017-09-29T10:30:03.818Z,91.10
2017-09-29T10:32:31.290Z,91.10
2017-09-29T10:34:58.785Z,91.20
2017-09-29T10:37:26.255Z,91.20
2017-09-29T10:39:54.535Z,91.40
2017-09-29T10:42:22.797Z,91.50
2017-09-29T10:44:50.276Z,91.50
2017-09-29T10:47:18.543Z,91.30
2017-09-29T10:49:46.800Z,91.40
2017-09-29T10:52:14.313Z,91.40
2017-09-29T10:54:41.781Z,91.50
2017-09-29T10:57:09.294Z,91.30
2017-09-29T10:59:36.801Z,91.50
2017-09-29T11:02:04.273Z,91.40
2017-09-29T11:04:31.771Z,91.40
2017-09-29T11:06:59.239Z,91.40
2017-09-29T11:09:27.490Z,91.20
2017-09-29T11:11:55.750Z,91.20
2017-09-29T11:14:23.256Z,91.20
2017-09-29T11:16:51.528Z,91.30
2017-09-29T11:19:19.810Z,91.20
2017-09-29T11:21:48.085Z,91.20
2017-09-29T11:24:16.355Z,90.40
2017-09-29T11:26:44.636Z,90.10
2017-09-29T11:29:12.880Z,90.60
2017-09-29T11:31:40.371Z,90.60
2017-09-29T11:34:08.633Z,89.80
2017-09-29T11:36:36.099Z,89.70
2017-09-29T11:39:04.383Z,89.80
2017-09-29T11:41:32.616Z,88.20
2017-09-29T11:44:00.087Z,88.10
2017-09-29T11:46:27.603Z,86.70
2017-09-29T11:48:55.090Z,87.00
2017-09-29T11:51:22.588Z,84.50
2017-09-29T11:53:50.253Z,86.70
2017-09-29T11:56:18.527Z,83.70
2017-09-29T11:58:46.784Z,84.10
2017-09-29T12:01:15.039Z,83.10
2017-09-29T12:03:42.548Z,83.10
2017-09-29T12:06:10.795Z,83.80
2017-09-29T12:08:38.296Z,83.70
2017-09-29T12:11:05.804Z,81.50
2017-09-29T12:13:33.305Z,81.40
2017-09-29T12:16:01.528Z,81.40
2017-09-29T12:18:29.033Z,81.30
2017-09-29T12:20:57.328Z,81.20
2017-09-29T12:23:25.056Z,81.20
2017-09-29T12:25:52.547Z,80.50
2017-09-29T12:28:20.020Z,80.30
2017-09-29T12:30:47.533Z,80.30
2017-09-29T12:33:15.015Z,81.00
2017-09-29T12:35:43.288Z,79.80
2017-09-29T12:38:11.552Z,81.70
2017-09-29T12:40:39.069Z,81.70
2017-09-29T12:43:06.538Z,80.50
2017-09-29T12:45:34.048Z,80.60
2017-09-29T12:48:01.551Z,80.70
2017-09-29T12:50:29.131Z,79.50
2017-09-29T12:52:58.353Z,78.90
2017-09-29T12:55:26.604Z,80.10
2017-09-29T12:57:54.122Z,80.10
2017-09-29T13:00:21.619Z,80.80
2017-09-29T13:02:49.110Z,79.90
2017-09-29T13:05:17.395Z,78.20
2017-09-29T13:07:45.654Z,78.40
2017-09-29T13:10:13.180Z,78.40
2017-09-29T13:12:40.669Z,78.20
2017-09-29T13:15:08.192Z,77.80
2017-09-29T13:17:35.668Z,78.80
2017-09-29T13:20:04.679Z,77.30
2017-09-29T13:22:32.190Z,77.30
2017-09-29T13:24:59.661Z,76.80
2017-09-29T13:27:27.200Z,76.50
2017-09-29T13:29:54.686Z,77.90
2017-09-29T13:32:22.194Z,77.40
2017-09-29T13:34:50.441Z,76.90
2017-09-29T13:37:17.955Z,76.80
2017-09-29T13:39:45.431Z,76.60
2017-09-29T13:42:12.909Z,76.70
2017-09-29T13:44:40.388Z,77.10
2017-09-29T13:47:08.647Z,75.80
2017-09-29T13:49:36.167Z,75.80
2017-09-29T13:52:03.675Z,76.70
2017-09-29T13:54:31.189Z,75.80
2017-09-29T13:56:58.683Z,76.10
2017-09-29T13:59:26.209Z,76.10
2017-09-29T14:01:53.736Z,76.30
2017-09-29T14:04:22.000Z,75.80
2017-09-29T14:06:49.499Z,75.80
2017-09-29T14:09:17.007Z,75.90
2017-09-29T14:11:44.511Z,75.20
2017-09-29T14:14:11.984Z,76.20
2017-09-29T14:16:39.509Z,75.10
2017-09-29T14:19:07.009Z,76.00
2017-09-29T14:21:34.467Z,76.50
2017-09-29T14:24:01.976Z,76.20
2017-09-29T14:26:30.246Z,76.40
2017-09-29T14:28:58.538Z,76.90
2017-09-29T14:31:26.762Z,76.80
2017-09-29T14:33:54.290Z,76.80
2017-09-29T14:36:21.755Z,76.50
2017-09-29T14:38:49.275Z,77.30
2017-09-29T14:41:16.755Z,77.80
2017-09-29T14:43:45.019Z,78.00
2017-09-29T14:46:13.269Z,78.30
2017-09-29T14:48:40.751Z,78.20
2017-09-29T14:51:09.015Z,78.50
2017-09-29T14:53:36.485Z,78.40
2017-09-29T14:56:04.744Z,79.60
2017-09-29T14:58:32.993Z,78.80
2017-09-29T15:01:00.491Z,78.80
2017-09-29T15:03:27.981Z,78.50
2017-09-29T15:05:55.475Z,78.20
2017-09-29T15:08:22.992Z,78.80
2017-09-29T15:10:50.472Z,78.50
2017-09-29T15:13:17.982Z,79.00
2017-09-29T15:15:46.247Z,78.70
2017-09-29T15:18:13.738Z,78.70
2017-09-29T15:20:42.002Z,80.10
2017-09-29T15:23:10.619Z,79.80
2017-09-29T15:25:38.127Z,79.80
2017-09-29T15:28:05.619Z,81.00
2017-09-29T15:30:33.871Z,80.10
2017-09-29T15:33:01.371Z,80.10
2017-09-29T15:35:28.869Z,79.90
2017-09-29T15:37:56.351Z,80.60
2017-09-29T15:40:23.814Z,81.00
2017-09-29T15:42:52.091Z,81.80
2017-09-29T15:45:20.339Z,81.50
2017-09-29T15:47:47.811Z,81.50
2017-09-29T15:50:15.304Z,81.40
2017-09-29T15:52:42.758Z,81.20
2017-09-29T15:55:10.259Z,81.50
2017-09-29T15:57:37.734Z,81.40
2017-09-29T16:00:05.254Z,81.80
2017-09-29T16:02:32.769Z,82.70
2017-09-29T16:05:00.275Z,82.50
2017-09-29T16:07:27.783Z,82.40
2017-09-29T16:09:55.258Z,82.80
2017-09-29T16:12:23.540Z,82.80
2017-09-29T16:14:51.822Z,83.50
2017-09-29T16:17:20.095Z,83.80
2017-09-29T16:19:48.334Z,84.30
2017-09-29T16:22:15.808Z,84.30
2017-09-29T16:24:43.330Z,84.60
2017-09-29T16:27:10.865Z,85.50
2017-09-29T16:29:38.350Z,85.90
2017-09-29T16:32:05.840Z,86.20
2017-09-29T16:34:33.338Z,85.30
2017-09-29T16:37:00.821Z,85.40
2017-09-29T16:39:28.313Z,86.50
2017-09-29T16:41:55.845Z,87.10
2017-09-29T16:44:23.345Z,87.40
2017-09-29T16:46:50.847Z,87.20
2017-09-29T16:49:18.353Z,88.00
2017-09-29T16:51:45.914Z,87.90
2017-09-29T16:54:13.412Z,88.70
2017-09-29T16:56:40.898Z,88.90
2017-09-29T16:59:08.396Z,88.60
2017-09-29T17:01:36.642Z,88.10
2017-09-29T17:04:04.144Z,88.10
2017-09-29T17:06:32.382Z,88.60
2017-09-29T17:08:59.906Z,88.50
2017-09-29T17:11:27.377Z,89.00
2017-09-29T17:13:54.853Z,89.00
2017-09-29T17:16:22.361Z,88.70
2017-09-29T17:18:50.592Z,88.80
2017-09-29T17:21:18.078Z,88.80
2017-09-29T17:23:45.579Z,89.00
2017-09-29T17:26:13.068Z,88.90
2017-09-29T17:28:40.570Z,88.90
2017-09-29T17:31:08.813Z,89.40
2017-09-29T17:33:36.407Z,89.40
2017-09-29T17:36:03.925Z,89.60
2017-09-29T17:38:31.433Z,89.50
2017-09-29T17:40:58.899Z,89.30
2017-09-29T17:43:26.415Z,89.60
2017-09-29T17:45:54.721Z,89.60
2017-09-29T17:48:23.601Z,89.90
2017-09-29T17:50:51.200Z,89.90
2017-09-29T17:53:18.702Z,89.70
2017-09-29T17:55:46.984Z,89.00
2017-09-29T17:58:14.483Z,89.00
2017-09-29T18:00:41.995Z,88.70
2017-09-29T18:03:09.627Z,88.70
2017-09-29T18:05:37.151Z,89.20
2017-09-29T18:08:05.402Z,89.50
2017-09-29T18:10:32.894Z,89.40
2017-09-29T18:13:00.388Z,89.40
2017-09-29T18:15:28.850Z,89.10
2017-09-29T18:17:56.395Z,89.10
2017-09-29T18:20:24.524Z,89.60
2017-09-29T18:22:52.196Z,89.50
2017-09-29T18:25:20.937Z,89.60
2017-09-29T18:27:50.449Z,90.00
2017-09-29T18:30:18.408Z,90.00
2017-09-29T18:32:46.280Z,90.20
2017-09-29T18:35:14.153Z,90.20
2017-09-29T18:37:42.012Z,90.10
2017-09-29T18:40:10.699Z,89.90
2017-09-29T18:42:38.569Z,89.80
2017-09-29T18:45:12.387Z,89.60
2017-09-29T18:47:41.163Z,89.40
2017-09-29T18:50:09.037Z,89.40
2017-09-29T18:52:37.199Z,89.40
2017-09-29T18:55:05.173Z,89.50
2017-09-29T18:57:33.042Z,89.90
2017-09-29T19:00:00.914Z,90.00
2017-09-29T19:02:28.982Z,89.80
2017-09-29T19:04:56.863Z,89.60
2017-09-29T19:07:26.251Z,89.50
2017-09-29T19:09:54.127Z,89.50
2017-09-29T19:12:22.454Z,89.80
2017-09-29T19:14:49.964Z,89.80
2017-09-29T19:17:17.435Z,89.70
2017-09-29T19:19:44.955Z,89.90
2017-09-29T19:22:12.442Z,90.00
2017-09-29T19:24:39.929Z,90.00
2017-09-29T19:27:07.441Z,89.80
2017-09-29T19:29:34.922Z,89.70
2017-09-29T19:32:02.440Z,89.60
2017-09-29T19:34:30.673Z,89.50
2017-09-29T19:36:58.173Z,89.50
2017-09-29T19:39:26.409Z,89.20
2017-09-29T19:41:53.899Z,89.20
2017-09-29T19:44:22.164Z,89.30
2017-09-29T19:46:51.142Z,89.60
2017-09-29T19:49:18.660Z,89.60
2017-09-29T19:51:46.127Z,89.80
2017-09-29T19:54:13.639Z,90.00
2017-09-29T19:56:41.947Z,90.10
2017-09-29T19:59:10.185Z,90.20
2017-09-29T20:01:37.732Z,90.20
2017-09-29T20:04:05.255Z,90.30
2017-09-29T20:06:32.768Z,90.30
2017-09-29T20:09:00.250Z,90.30
2017-09-29T20:11:28.527Z,90.40
2017-09-29T20:13:56.773Z,90.40
2017-09-29T20:16:24.267Z,90.40
2017-09-29T20:18:51.778Z,90.40
2017-09-29T20:21:19.262Z,90.50
2017-09-29T20:23:48.267Z,90.50
2017-09-29T20:26:16.490Z,90.50
2017-09-29T20:28:44.033Z,90.50
2017-09-29T20:31:11.552Z,90.50
2017-09-29T20:33:39.776Z,90.40
2017-09-29T20:36:07.282Z,90.40
2017-09-29T20:38:34.772Z,90.50
2017-09-29T20:41:02.243Z,90.50
2017-09-29T20:43:30.495Z,90.60
2017-09-29T20:45:58.718Z,90.50
2017-09-29T20:48:26.216Z,90.50
2017-09-29T20:50:53.711Z,90.50
2017-09-29T20:53:21.221Z,90.50
2017-09-29T20:55:48.732Z,90.40
2017-09-29T20:58:16.966Z,90.30
2017-09-29T21:00:45.242Z,90.10
2017-09-29T21:03:13.471Z,90.10
2017-09-29T21:05:40.981Z,90.10
2017-09-29T21:08:09.214Z,90.00
2017-09-29T21:10:36.719Z,90.00
2017-09-29T21:13:04.981Z,90.30
2017-09-29T21:15:32.482Z,90.30
2017-09-29T21:17:59.955Z,90.30
2017-09-29T21:20:27.438Z,90.20
2017-09-29T21:22:54.942Z,89.90
2017-09-29T21:25:23.202Z,89.80
2017-09-29T21:27:50.723Z,89.80
2017-09-29T21:30:18.202Z,89.70
2017-09-29T21:32:46.447Z,89.80
2017-09-29T21:35:13.955Z,89.80
2017-09-29T21:37:41.458Z,89.60
2017-09-29T21:40:08.991Z,89.70
2017-09-29T21:42:37.218Z,90.10
2017-09-29T21:45:04.727Z,90.00
2017-09-29T21:47:32.963Z,90.20
2017-09-29T21:50:00.442Z,90.20
2017-09-29T21:52:28.722Z,90.10
2017-09-29T21:54:57.041Z,90.20
2017-09-29T21:57:24.634Z,90.20
2017-09-29T21:59:52.115Z,90.10
2017-09-29T22:02:19.654Z,90.00
2017-09-29T22:04:47.147Z,90.00
2017-09-29T22:07:15.426Z,90.20
2017-09-29T22:09:43.707Z,90.10
2017-09-29T22:12:11.978Z,90.10
2017-09-29T22:14:40.235Z,90.00
2017-09-29T22:17:08.471Z,90.00
2017-09-29T22:19:36.008Z,90.00
2017-09-29T22:22:03.497Z,90.10
2017-09-29T22:24:31.042Z,90.10
2017-09-29T22:26:58.535Z,90.10
2017-09-29T22:29:26.051Z,90.00
2017-09-29T22:31:53.547Z,90.00
2017-09-29T22:34:21.030Z,90.10
2017-09-29T22:36:48.580Z,90.10
2017-09-29T22:39:17.592Z,90.40
2017-09-29T22:41:45.835Z,90.40
2017-09-29T22:44:13.350Z,90.40
2017-09-29T22:46:40.812Z,90.30
2017-09-29T22:49:08.342Z,90.30
2017-09-29T22:51:36.611Z,90.20
2017-09-29T22:54:05.634Z,90.10
2017-09-29T22:56:33.114Z,90.20
2017-09-29T22:59:00.652Z,90.10
2017-09-29T23:01:28.900Z,90.10
2017-09-29T23:03:56.381Z,90.10
2017-09-29T23:06:24.629Z,90.20
2017-09-29T23:08:52.109Z,90.10
2017-09-29T23:11:20.530Z,90.30
2017-09-29T23:13:48.008Z,90.30
2017-09-29T23:16:15.524Z,90.40
2017-09-29T23:18:43.016Z,90.50
2017-09-29T23:21:10.503Z,90.60
2017-09-29T23:23:38.022Z,90.60
2017-09-29T23:26:07.020Z,90.60
2017-09-29T23:28:37.782Z,90.50
2017-09-29T23:31:05.577Z,90.30
2017-09-29T23:33:33.854Z,90.30
2017-09-29T23:36:02.110Z,90.30
2017-09-29T23:38:29.621Z,90.30
2017-09-29T23:40:57.950Z,90.30
2017-09-29T23:43:25.442Z,90.20
2017-09-29T23:45:52.965Z,90.20
2017-09-29T23:48:20.478Z,90.10
2017-09-29T23:50:47.967Z,90.00
2017-09-29T23:53:15.508Z,90.30
2017-09-29T23:55:42.995Z,90.40
2017-09-29T23:58:10.531Z,90.30
